| time (UTC) | temp C | wind direction | speed KPH | gust KPH | rain 1hr cm | rain 24hr cm | rain mn cm | humidity % | barometer mb |
| 20260507220036 | 11 | 217 | 11.3 | 19.3 | 0.00 | 2.92 | 2.92 | 99 | 1002.2 |
| 20260507214527 | 11 | 261 | 9.7 | 14.5 | 0.00 | 2.92 | 2.92 | 99 | 1001.8 |
| 20260507213031 | 11 | 248 | 11.3 | 25.7 | 0.00 | 2.92 | 2.92 | 99 | 1001.7 |
| 20260507211533 | 11 | 216 | 14.5 | 27.4 | 0.00 | 2.92 | 2.92 | 98 | 1002.0 |
| 20260507210030 | 11 | 207 | 14.5 | 30.6 | 0.03 | 2.92 | 2.92 | 99 | 1002.4 |
| 20260507204524 | 11 | 230 | 14.5 | 24.1 | 0.05 | 2.92 | 2.92 | 99 | 1002.1 |
| 20260507203026 | 11 | 197 | 11.3 | 19.3 | 0.08 | 2.92 | 2.92 | 99 | 1001.7 |
| 20260507201523 | 11 | 178 | 12.9 | 27.4 | 0.15 | 2.92 | 2.92 | 99 | 1001.3 |
| 20260507200022 | 11 | 152 | 8.0 | 22.5 | 0.23 | 2.90 | 2.90 | 99 | 1001.7 |
| 20260507194530 | 11 | 185 | 8.0 | 17.7 | 0.33 | 2.87 | 2.87 | 99 | 1002.7 |
| 20260507193016 | 11 | 226 | 11.3 | 22.5 | 0.58 | 2.84 | 2.84 | 99 | 1003.1 |
| 20260507191514 | 10 | 196 | 8.0 | 12.9 | 0.79 | 2.79 | 2.79 | 99 | 1003.3 |
| 20260507190019 | 10 | 167 | 6.4 | 12.9 | 0.86 | 2.67 | 2.67 | 99 | 1003.7 |
| 20260507184509 | 10 | 202 | 4.8 | 9.7 | 0.99 | 2.54 | 2.54 | 98 | 1004.1 |
| 20260507183011 | 10 | 198 | 6.4 | 17.7 | 1.12 | 2.26 | 2.26 | 98 | 1004.4 |
| 20260507181508 | 10 | 175 | 11.3 | 25.7 | 1.42 | 2.01 | 2.01 | 98 | 1004.7 |
| 20260507180006 | 11 | 227 | 9.7 | 20.9 | 1.37 | 1.78 | 1.78 | 98 | 1005.0 |
| 20260507174510 | 11 | 198 | 9.7 | 29.0 | 1.24 | 1.55 | 1.55 | 98 | 1004.9 |
| 20260507173016 | 11 | 179 | 17.7 | 33.8 | 0.89 | 1.14 | 1.14 | 98 | 1005.1 |
| 20260507171503 | 11 | 180 | 17.7 | 35.4 | 0.38 | 0.56 | 0.56 | 98 | 1004.6 |
| 20260507170005 | 12 | 148 | 17.7 | 37.0 | 0.33 | 0.41 | 0.41 | 98 | 1004.1 |
| 20260507164502 | 11 | 183 | 12.9 | 35.4 | 0.23 | 0.30 | 0.30 | 98 | 1004.5 |
| 20260507163100 | 11 | 205 | 20.9 | 32.2 | 0.20 | 0.28 | 0.28 | 98 | 1004.8 |
| 20260507161600 | 12 | 215 | 12.9 | 30.6 | 0.10 | 0.18 | 0.18 | 98 | 1005.1 |
| 20260507160054 | 12 | 179 | 12.9 | 35.4 | 0.03 | 0.10 | 0.10 | 97 | 1005.8 |
| 20260507154557 | 12 | 158 | 16.1 | 33.8 | 0.00 | 0.08 | 0.08 | 96 | 1006.1 |
| 20260507153055 | 12 | 171 | 16.1 | 35.4 | 0.00 | 0.08 | 0.08 | 96 | 1006.5 |
| 20260507151549 | 12 | 231 | 16.1 | 35.4 | 0.00 | 0.08 | 0.08 | 96 | 1007.1 |
| 20260507150047 | 12 | 211 | 17.7 | 53.1 | 0.00 | 0.08 | 0.08 | 95 | 1007.6 |
| 20260507144544 | 12 | 214 | 14.5 | 33.8 | 0.00 | 0.08 | 0.08 | 95 | 1007.8 |
| 20260507143047 | 13 | 219 | 24.1 | 41.8 | 0.00 | 0.08 | 0.08 | 95 | 1007.8 |
| 20260507141543 | 13 | 169 | 17.7 | 46.7 | 0.00 | 0.08 | 0.08 | 95 | 1008.1 |
| 20260507140043 | 12 | 165 | 14.5 | 35.4 | 0.00 | 0.08 | 0.08 | 96 | 1008.4 |
| 20260507134539 | 13 | 120 | 16.1 | 32.2 | 0.00 | 0.08 | 0.08 | 96 | 1008.8 |
| 20260507133035 | 13 | 193 | 14.5 | 38.6 | 0.00 | 0.08 | 0.08 | 96 | 1009.1 |
| 20260507131538 | 13 | 159 | 11.3 | 41.8 | 0.00 | 0.08 | 0.08 | 96 | 1009.1 |
| 20260507130039 | 12 | 201 | 16.1 | 30.6 | 0.00 | 0.08 | 0.08 | 96 | 1009.3 |
| 20260507124539 | 13 | 196 | 11.3 | 35.4 | 0.00 | 0.08 | 0.08 | 96 | 1009.3 |
| 20260507123030 | 13 | 219 | 19.3 | 38.6 | 0.00 | 0.08 | 0.08 | 97 | 1009.6 |
| 20260507121528 | 12 | 165 | 12.9 | 30.6 | 0.03 | 0.08 | 0.08 | 97 | 1009.6 |
| 20260507120025 | 12 | 161 | 14.5 | 33.8 | 0.08 | 0.08 | 0.08 | 98 | 1010.0 |
| 20260507114532 | 12 | 173 | 9.7 | 35.4 | 0.08 | 0.08 | 0.08 | 98 | 1010.2 |
| 20260507113039 | 12 | 199 | 19.3 | 30.6 | 0.08 | 0.08 | 0.08 | 98 | 1010.2 |
| 20260507111525 | 11 | 164 | 14.5 | 38.6 | 0.05 | 0.05 | 0.05 | 97 | 1010.3 |
| 20260507110020 | 12 | 153 | 14.5 | 33.8 | 0.00 | 0.00 | 0.00 | 96 | 1010.2 |
| 20260507104519 | 12 | 178 | 6.4 | 20.9 | 0.00 | 0.00 | 0.00 | 97 | 1010.4 |
| 20260507103021 | 12 | 190 | 11.3 | 32.2 | 0.00 | 0.00 | 0.00 | 97 | 1010.7 |
| 20260507101519 | 12 | 149 | 14.5 | 33.8 | 0.00 | 0.00 | 0.00 | 98 | 1010.6 |
| 20260507100016 | 12 | 215 | 9.7 | 27.4 | 0.00 | 0.00 | 0.00 | 97 | 1010.8 |
| 20260507094517 | 12 | 190 | 17.7 | 41.8 | 0.00 | 0.00 | 0.00 | 97 | 1010.3 |
| 20260507093014 | 12 | 197 | 24.1 | 40.2 | 0.00 | 0.00 | 0.00 | 97 | 1011.0 |
| 20260507091513 | 12 | 196 | 20.9 | 38.6 | 0.00 | 0.00 | 0.00 | 98 | 1011.0 |
| 20260507090013 | 12 | 113 | 16.1 | 40.2 | 0.00 | 0.00 | 0.00 | 99 | 1011.1 |
| 20260507084508 | 11 | 182 | 11.3 | 25.7 | 0.00 | 0.00 | 0.00 | 99 | 1011.3 |
| 20260507083006 | 11 | 194 | 6.4 | 27.4 | 0.00 | 0.00 | 0.00 | 99 | 1011.2 |
| 20260507081506 | 11 | 182 | 16.1 | 27.4 | 0.00 | 0.00 | 0.00 | 99 | 1011.4 |
| 20260507074603 | 10 | 159 | 9.7 | 17.7 | 0.00 | 0.00 | 0.00 | 99 | 1011.9 |
| 20260507073101 | 10 | 159 | 9.7 | 24.1 | 0.00 | 0.00 | 0.00 | 99 | 1012.0 |
| 20260507071553 | 10 | 223 | 14.5 | 27.4 | 0.00 | 0.00 | 0.00 | 99 | 1012.5 |
| 20260507070050 | 10 | 194 | 6.4 | 12.9 | 0.00 | 0.00 | 0.00 | 98 | 1013.1 |
| 20260507064550 | 10 | 222 | 8.0 | 17.7 | 0.00 | 0.00 | 0.00 | 98 | 1013.4 |
| 20260507063047 | 10 | 200 | 3.2 | 12.9 | 0.00 | 0.00 | 0.00 | 98 | 1013.6 |
| 20260507061546 | 10 | 191 | 0.0 | 8.0 | 0.00 | 0.00 | 0.00 | 98 | 1013.8 |
| 20260507060058 | 10 | 192 | 1.6 | 19.3 | 0.00 | 0.00 | 0.00 | 98 | 1013.6 |
| 20260507054543 | 10 | 185 | 8.0 | 17.7 | 0.00 | 0.00 | 0.00 | 98 | 1013.7 |
| 20260507053042 | 10 | 227 | 4.8 | 9.7 | 0.00 | 0.00 | 0.00 | 98 | 1014.0 |
| 20260507051540 | 10 | 246 | 6.4 | 20.9 | 0.00 | 0.00 | 0.00 | 98 | 1014.5 |
| 20260507050041 | 10 | 217 | 6.4 | 17.7 | 0.00 | 0.00 | 0.00 | 98 | 1014.7 |
| 20260507044638 | 10 | 219 | 9.7 | 24.1 | 0.00 | 0.00 | 0.00 | 98 | 1015.0 |
| 20260507043041 | 10 | 172 | 8.0 | 22.5 | 0.00 | 0.00 | 0.00 | 98 | 1015.2 |
| 20260507041530 | 10 | 215 | 14.5 | 24.1 | 0.00 | 0.00 | 0.00 | 98 | 1015.7 |
| 20260507040026 | 10 | 225 | 12.9 | 27.4 | 0.00 | 0.00 | 0.00 | 98 | 1016.0 |
| 20260507034532 | 10 | 217 | 9.7 | 22.5 | 0.00 | 0.00 | 0.00 | 98 | 1016.2 |
| 20260507033023 | 10 | 210 | 9.7 | 19.3 | 0.00 | 0.00 | 0.00 | 98 | 1016.2 |
| 20260507031521 | 10 | 211 | 9.7 | 20.9 | 0.00 | 0.00 | 0.00 | 98 | 1016.6 |
| 20260507030018 | 10 | 208 | 8.0 | 20.9 | 0.00 | 0.00 | 0.00 | 98 | 1016.8 |
| 20260507024519 | 10 | 205 | 11.3 | 24.1 | 0.00 | 0.00 | 0.00 | 98 | 1016.9 |
| 20260507023016 | 10 | 220 | 12.9 | 25.7 | 0.00 | 0.00 | 0.00 | 97 | 1017.0 |
| 20260507021515 | 9 | 200 | 16.1 | 27.4 | 0.00 | 0.00 | 0.00 | 97 | 1017.4 |
| 20260507020018 | 9 | 211 | 17.7 | 30.6 | 0.00 | 0.00 | 0.00 | 96 | 1017.4 |
| 20260507014510 | 10 | 225 | 9.7 | 22.5 | 0.00 | 0.00 | 0.00 | 96 | 1017.6 |
| 20260507013013 | 10 | 190 | 8.0 | 19.3 | 0.00 | 0.00 | 0.00 | 96 | 1017.6 |
| 20260507011511 | 10 | 206 | 11.3 | 27.4 | 0.00 | 0.00 | 0.00 | 95 | 1017.7 |
| 20260507010006 | 10 | 209 | 11.3 | 20.9 | 0.00 | 0.00 | 0.00 | 95 | 1017.8 |
| 20260507004504 | 10 | 193 | 9.7 | 20.9 | 0.00 | 0.00 | 0.00 | 95 | 1018.0 |
| 20260507003004 | 10 | 227 | 11.3 | 20.9 | 0.00 | 0.00 | 0.00 | 95 | 1018.1 |
| 20260507001505 | 10 | 217 | 14.5 | 35.4 | 0.00 | 0.00 | 0.00 | 95 | 1018.0 |
| 20260506234600 | 11 | 163 | 9.7 | 27.4 | 0.00 | 0.00 | 0.00 | 94 | 1018.1 |
| 20260506233101 | 11 | 209 | 12.9 | 20.9 | 0.00 | 0.00 | 0.00 | 92 | 1018.0 |
| 20260506231606 | 11 | 213 | 14.5 | 22.5 | 0.00 | 0.00 | 0.00 | 91 | 1017.9 |
| 20260506230112 | 11 | 199 | 16.1 | 25.7 | 0.00 | 0.00 | 0.00 | 89 | 1017.8 |
| 20260506224555 | 12 | 227 | 14.5 | 27.4 | 0.00 | 0.00 | 0.00 | 89 | 1017.7 |
| 20260506223058 | 12 | 165 | 16.1 | 30.6 | 0.00 | 0.00 | 0.00 | 88 | 1017.4 |
| 20260506221607 | 12 | 186 | 19.3 | 27.4 | 0.00 | 0.00 | 0.00 | 88 | 1017.4 |